Tyndall Air Force Base
KPAM : now visible

Airfield :











YOU CAN JOIN US ON...

 
LOGIN :

Register | Disclaimer

   EN    FR    IT 

 









Legend :    VFR   Marginal VFR   IFR   Intensive IFR   Very Intensive IFR
Visi :
Ceiling :
>= 8 km
>= 3000ft
5 to 8 km
1000 to 3000 ft
1500m to 5 km
500 to 1000 ft
800 to 1500m
200 to 500 ft
< 800m
< 200 ft
Symbols :   Thunderstorms  Fog  Heavy snow  Heavy precipitations  Wind > 20 kt






- Airport Elevation : 17 ft


KPAM - Tyndall Air Force Base

CURRENT METAR :
  • 281806Z AUTO 16015KT 10SM SCT012 27/23 A3004 RMK AO2 SLP175 $

EXPIRED METARs :
  • 281756Z AUTO 17013KT 10SM BKN012 27/23 A3004 RMK AO2 CIG 011 RWY32 SLP175 T02700226 10275 20225 55000 $
  • 281656Z AUTO 17011G17KT 10SM BKN013 27/22 A3005 RMK AO2 CIG 012 RWY32 SLP179 T02680222 $
  • 281556Z AUTO 18010KT 10SM BKN012 26/22 A3004 RMK AO2 BKN V OVC CIG 011 RWY32 SLP175 T02600218 $

TAF TAF KPAM
Valid from the 27 at 19:00 until the 29 at 01:00 UTC


271900Z 2719/2901 22008KT 9999 BKN017 BKN025 QNH2997INS
BECMG 2802/2803 19005KT 9999 FEW015 SCT030 QNH3002INS
BECMG 2808/2809 18006KT 4800 BR FEW004 QNH2998INS
BECMG 2812/2813 18009KT 9999 NSW SCT020 QNH3000INS TX28/2720Z TN21/2811Z LAST NO AMDS AFT 2722 NEXT 3011



MET'MAP, your aeronautical weather chart ! - Copyright ORBIFLY December 2007 - Disclaimer

ORBIFLY MET'MAP TEAM :

Programming & Development : Alexandra Zaïnal
Concept & original design : Baudouin d'Aumeries
Assistance for programming : Marc-Olivier Méhu
Technical & hardware support : Manuel Goepfert

Contact : metmap@orbifly.com




SOURCES & CREDITS :

   NOAA       Earth
Advisory